createdAt,value
2023-05-25T00:01:07.318Z,18.10
2023-05-25T00:03:36.271Z,18.05
2023-05-25T00:06:04.103Z,18.02
2023-05-25T00:08:31.864Z,18.10
2023-05-25T00:10:59.357Z,18.04
2023-05-25T00:13:26.392Z,18.03
2023-05-25T00:15:53.505Z,18.01
2023-05-25T00:18:21.242Z,18.12
2023-05-25T00:20:48.472Z,18.08
2023-05-25T00:23:15.611Z,18.09
2023-05-25T00:25:42.999Z,18.12
2023-05-25T00:28:11.847Z,18.08
2023-05-25T00:30:39.494Z,18.07
2023-05-25T00:33:07.223Z,18.00
2023-05-25T00:35:34.668Z,18.06
2023-05-25T00:38:01.846Z,18.00
2023-05-25T00:40:29.534Z,17.97
2023-05-25T00:42:59.533Z,17.97
2023-05-25T00:45:26.675Z,17.97
2023-05-25T00:47:54.452Z,17.95
2023-05-25T00:50:43.583Z,17.99
2023-05-25T00:53:13.102Z,17.93
2023-05-25T00:55:53.403Z,17.93
2023-05-25T00:58:27.426Z,18.07
2023-05-25T01:00:57.946Z,17.87
2023-05-25T01:03:29.785Z,17.74
2023-05-25T01:05:59.287Z,17.72
2023-05-25T01:08:28.206Z,17.82
2023-05-25T01:10:58.435Z,17.65
2023-05-25T01:13:27.720Z,17.56
2023-05-25T01:15:56.310Z,17.55
2023-05-25T01:18:23.465Z,17.56
2023-05-25T01:21:15.218Z,17.52
2023-05-25T01:23:51.512Z,17.57
2023-05-25T01:26:21.731Z,17.50
2023-05-25T01:28:53.371Z,17.67
2023-05-25T01:31:24.615Z,17.65
2023-05-25T01:33:53.900Z,17.56
2023-05-25T01:36:21.191Z,17.65
2023-05-25T01:38:49.607Z,17.66
2023-05-25T01:42:03.570Z,17.63
2023-05-25T01:44:31.173Z,17.58
2023-05-25T01:47:44.755Z,17.66
2023-05-25T01:50:16.156Z,17.60
2023-05-25T01:52:49.264Z,17.49
2023-05-25T01:55:20.217Z,17.46
2023-05-25T01:58:18.688Z,17.52
2023-05-25T02:00:49.266Z,17.58
2023-05-25T02:03:17.159Z,17.60
2023-05-25T02:05:46.524Z,17.53
2023-05-25T02:08:13.833Z,17.43
2023-05-25T02:10:40.979Z,17.43
2023-05-25T02:13:08.092Z,17.41
2023-05-25T02:15:35.328Z,17.37
2023-05-25T02:18:03.165Z,17.51
2023-05-25T02:20:31.601Z,17.54
2023-05-25T02:22:58.834Z,17.56
2023-05-25T02:25:26.017Z,17.51
2023-05-25T02:27:53.186Z,17.52
2023-05-25T02:30:20.954Z,17.61
2023-05-25T02:32:48.798Z,17.66
2023-05-25T02:35:16.197Z,17.62
2023-05-25T02:37:44.525Z,17.66
2023-05-25T02:40:12.119Z,17.70
2023-05-25T02:42:39.305Z,17.67
2023-05-25T02:45:10.757Z,17.66
2023-05-25T02:47:37.992Z,17.70
2023-05-25T02:50:05.902Z,17.76
2023-05-25T02:52:33.263Z,17.82
2023-05-25T02:55:01.136Z,17.83
2023-05-25T02:57:29.223Z,17.97
2023-05-25T02:59:57.066Z,18.12
2023-05-25T03:02:25.691Z,17.99
2023-05-25T03:04:55.589Z,17.84
2023-05-25T03:07:22.842Z,17.93
2023-05-25T03:09:49.967Z,18.11
2023-05-25T03:12:17.078Z,18.11
2023-05-25T03:14:44.099Z,18.23
2023-05-25T03:17:11.301Z,18.29
2023-05-25T03:19:38.854Z,18.30
2023-05-25T03:22:07.253Z,18.16
2023-05-25T03:24:34.298Z,18.08
2023-05-25T03:27:02.172Z,18.22
2023-05-25T03:29:29.710Z,18.22
2023-05-25T03:31:56.897Z,18.24
2023-05-25T03:34:24.902Z,18.14
2023-05-25T03:36:53.693Z,18.22
2023-05-25T03:39:22.365Z,18.25
2023-05-25T03:41:49.585Z,18.30
2023-05-25T03:44:17.001Z,18.35
2023-05-25T03:46:44.374Z,18.22
2023-05-25T03:49:14.230Z,18.05
2023-05-25T03:51:42.928Z,18.00
2023-05-25T03:54:10.852Z,18.12
2023-05-25T03:56:37.925Z,18.11
2023-05-25T03:59:05.029Z,18.13
2023-05-25T04:01:32.653Z,18.40
2023-05-25T04:04:00.098Z,18.46
2023-05-25T04:06:27.305Z,18.36
2023-05-25T04:08:55.548Z,18.38
2023-05-25T04:11:24.883Z,18.40
2023-05-25T04:13:51.913Z,18.38
2023-05-25T04:16:19.125Z,18.46
2023-05-25T04:18:46.255Z,18.39
2023-05-25T04:21:14.467Z,18.43
2023-05-25T04:23:41.540Z,18.21
2023-05-25T04:26:10.468Z,17.95
2023-05-25T04:28:37.770Z,18.07
2023-05-25T04:31:05.637Z,18.08
2023-05-25T04:33:39.772Z,18.08
2023-05-25T04:36:08.898Z,18.36
2023-05-25T04:38:35.987Z,18.50
2023-05-25T04:41:03.216Z,18.53
2023-05-25T04:43:30.547Z,18.64
2023-05-25T04:46:04.791Z,18.60
2023-05-25T04:48:34.362Z,18.73
2023-05-25T04:51:04.748Z,18.93
2023-05-25T04:53:32.390Z,19.07
2023-05-25T04:55:59.630Z,19.05
2023-05-25T04:58:27.121Z,19.08
2023-05-25T05:00:54.331Z,19.07
2023-05-25T05:03:22.762Z,18.95
2023-05-25T05:05:50.121Z,18.82
2023-05-25T05:08:17.345Z,18.87
2023-05-25T05:10:44.728Z,18.96
2023-05-25T05:13:12.600Z,18.94
2023-05-25T05:15:40.149Z,19.18
2023-05-25T05:18:08.917Z,19.29
2023-05-25T05:20:36.241Z,19.32
2023-05-25T05:23:03.560Z,19.34
2023-05-25T05:25:30.696Z,19.53
2023-05-25T05:27:58.149Z,19.50
2023-05-25T05:30:25.225Z,19.66
2023-05-25T05:32:53.241Z,19.76
2023-05-25T05:35:20.411Z,19.86
2023-05-25T05:37:48.473Z,20.13
2023-05-25T05:40:15.694Z,20.11
2023-05-25T05:42:42.996Z,20.13
2023-05-25T05:45:10.492Z,20.14
2023-05-25T05:47:38.029Z,20.14
2023-05-25T05:50:05.837Z,20.21
2023-05-25T05:52:33.048Z,20.29
2023-05-25T05:55:00.143Z,20.35
2023-05-25T05:57:28.675Z,20.31
2023-05-25T05:59:56.009Z,20.38
2023-05-25T06:02:24.120Z,20.57
2023-05-25T06:04:51.475Z,20.67
2023-05-25T06:07:18.546Z,20.86
2023-05-25T06:09:45.664Z,21.01
2023-05-25T06:12:12.696Z,21.03
2023-05-25T06:14:40.448Z,21.16
2023-05-25T06:17:07.770Z,21.34
2023-05-25T06:19:35.213Z,21.32
2023-05-25T06:22:02.298Z,21.32
2023-05-25T06:24:30.117Z,21.31
2023-05-25T06:26:57.172Z,21.31
2023-05-25T06:29:24.232Z,21.43
2023-05-25T06:31:51.442Z,21.39
2023-05-25T06:34:18.453Z,21.53
2023-05-25T06:36:46.913Z,21.76
2023-05-25T06:39:14.849Z,21.83
2023-05-25T06:41:41.865Z,22.06
2023-05-25T06:44:10.435Z,22.16
2023-05-25T06:46:39.342Z,22.25
2023-05-25T06:49:06.481Z,22.49
2023-05-25T06:51:33.860Z,22.51
2023-05-25T06:54:00.959Z,22.61
2023-05-25T06:56:28.146Z,22.84
2023-05-25T06:58:55.554Z,22.90
2023-05-25T07:01:22.796Z,23.08
2023-05-25T07:03:49.940Z,23.28
2023-05-25T07:06:17.589Z,23.20
2023-05-25T07:08:44.882Z,23.47
2023-05-25T07:11:14.300Z,23.48
2023-05-25T07:13:42.777Z,23.68
2023-05-25T07:16:09.936Z,23.75
2023-05-25T07:18:40.107Z,23.96
2023-05-25T07:21:10.184Z,23.77
2023-05-25T07:23:38.666Z,24.09
2023-05-25T07:26:06.156Z,24.17
2023-05-25T07:28:33.665Z,24.22
2023-05-25T07:31:01.615Z,24.31
2023-05-25T07:33:29.083Z,24.26
2023-05-25T07:35:56.166Z,24.17
2023-05-25T07:38:23.344Z,24.30
2023-05-25T07:40:50.885Z,24.35
2023-05-25T07:43:18.328Z,24.27
2023-05-25T07:45:45.697Z,24.46
2023-05-25T07:48:13.140Z,24.47
2023-05-25T07:50:40.334Z,24.70
2023-05-25T07:53:07.317Z,24.96
2023-05-25T07:55:34.333Z,25.23
2023-05-25T07:58:01.509Z,25.37
2023-05-25T08:00:28.559Z,25.52
2023-05-25T08:02:56.366Z,25.74
2023-05-25T08:05:23.695Z,25.99
2023-05-25T08:07:50.925Z,26.09
2023-05-25T08:10:18.220Z,26.05
2023-05-25T08:12:49.630Z,26.41
2023-05-25T08:15:17.713Z,26.70
2023-05-25T08:17:45.150Z,26.74
2023-05-25T08:20:12.891Z,26.66
2023-05-25T08:22:40.316Z,26.73
2023-05-25T08:25:08.341Z,26.73
2023-05-25T08:27:36.690Z,26.51
2023-05-25T08:30:08.204Z,26.67
2023-05-25T08:32:35.503Z,26.73
2023-05-25T08:35:04.765Z,26.83
2023-05-25T08:37:32.780Z,26.76
2023-05-25T08:40:02.516Z,26.63
2023-05-25T08:42:30.173Z,26.82
2023-05-25T08:44:57.413Z,26.86
2023-05-25T08:47:25.020Z,26.90
2023-05-25T08:49:55.445Z,27.21
2023-05-25T08:52:29.516Z,27.21
2023-05-25T08:55:02.287Z,27.36
2023-05-25T08:58:02.886Z,27.36
2023-05-25T09:00:35.132Z,27.06
2023-05-25T09:03:16.148Z,26.93
2023-05-25T09:05:44.241Z,26.56
2023-05-25T09:08:11.754Z,26.47
2023-05-25T09:10:39.320Z,25.99
2023-05-25T09:13:20.321Z,25.89
2023-05-25T09:15:50.007Z,25.70
2023-05-25T09:18:17.577Z,25.75
2023-05-25T09:20:47.066Z,25.70
2023-05-25T09:23:15.900Z,25.84
2023-05-25T09:25:44.658Z,25.75
2023-05-25T09:30:42.063Z,25.67
2023-05-25T09:33:13.643Z,25.52
2023-05-25T09:35:41.623Z,25.74
2023-05-25T09:38:08.949Z,25.79
2023-05-25T09:40:38.395Z,25.73
2023-05-25T09:43:05.744Z,25.72
2023-05-25T09:45:33.005Z,25.46
2023-05-25T09:48:00.258Z,25.63
2023-05-25T09:50:29.010Z,25.46
2023-05-25T09:52:59.918Z,25.55
2023-05-25T09:55:36.808Z,25.42
2023-05-25T09:58:15.834Z,25.24
2023-05-25T10:00:43.094Z,25.18
2023-05-25T10:03:15.354Z,24.96
2023-05-25T10:05:42.786Z,24.91
2023-05-25T10:08:11.589Z,24.90
2023-05-25T10:10:41.061Z,24.73
2023-05-25T10:13:11.812Z,24.66
2023-05-25T10:15:41.298Z,24.61
2023-05-25T10:18:10.044Z,24.48
2023-05-25T10:20:38.395Z,24.51
2023-05-25T10:23:12.054Z,24.36
2023-05-25T10:25:48.901Z,24.36
2023-05-25T10:28:36.169Z,24.23
2023-05-25T10:31:04.376Z,24.10
2023-05-25T10:33:33.334Z,23.96
2023-05-25T10:38:37.667Z,23.66
2023-05-25T10:41:10.969Z,23.65
2023-05-25T10:43:39.966Z,23.49
2023-05-25T10:46:08.046Z,23.47
2023-05-25T10:48:40.640Z,23.39
2023-05-25T10:51:09.311Z,23.42
2023-05-25T10:53:39.193Z,23.35
2023-05-25T10:56:10.027Z,23.35
2023-05-25T10:58:42.561Z,23.39
2023-05-25T11:01:12.702Z,23.36
2023-05-25T11:03:48.979Z,23.39
2023-05-25T11:06:18.488Z,23.38
2023-05-25T11:08:55.100Z,23.34
2023-05-25T11:11:43.085Z,23.28
2023-05-25T11:14:22.056Z,23.34
2023-05-25T11:17:08.311Z,23.22
2023-05-25T11:19:50.133Z,23.23
2023-05-25T11:22:22.861Z,23.16
2023-05-25T11:24:51.877Z,23.28
2023-05-25T11:27:30.181Z,23.23
2023-05-25T11:29:59.477Z,23.25
2023-05-25T11:32:28.361Z,23.12
2023-05-25T11:34:57.529Z,23.20
2023-05-25T11:37:29.033Z,23.00
2023-05-25T11:39:56.617Z,23.07
2023-05-25T11:42:24.752Z,22.87
2023-05-25T11:44:52.176Z,22.93
2023-05-25T11:47:25.867Z,22.97
2023-05-25T11:49:55.916Z,22.85
2023-05-25T11:52:23.521Z,22.74
2023-05-25T11:54:51.173Z,22.62
2023-05-25T11:57:25.793Z,22.62
2023-05-25T11:59:54.853Z,22.68
2023-05-25T12:02:23.472Z,22.74
2023-05-25T12:04:53.844Z,22.56
2023-05-25T12:07:21.069Z,22.57
2023-05-25T12:09:48.333Z,22.63
2023-05-25T12:12:15.773Z,22.69
2023-05-25T12:14:50.368Z,22.78
2023-05-25T12:17:19.280Z,22.76
2023-05-25T12:19:46.925Z,22.84
2023-05-25T12:22:14.637Z,22.83
2023-05-25T12:24:41.818Z,22.89
2023-05-25T12:27:19.788Z,22.92
2023-05-25T12:29:48.136Z,22.94
2023-05-25T12:32:16.477Z,23.05
2023-05-25T12:34:43.602Z,23.18
2023-05-25T12:37:21.794Z,23.27
2023-05-25T12:39:49.077Z,23.30
2023-05-25T12:42:17.751Z,23.33
2023-05-25T12:44:46.817Z,23.40
2023-05-25T12:47:28.211Z,23.53
2023-05-25T12:50:15.396Z,23.68
2023-05-25T12:52:45.029Z,23.79
2023-05-25T12:55:29.549Z,24.04
2023-05-25T12:58:02.390Z,24.21
2023-05-25T13:00:34.632Z,24.07
2023-05-25T13:03:03.051Z,24.34
2023-05-25T13:05:33.909Z,24.61
2023-05-25T13:08:02.142Z,24.65
2023-05-25T13:10:32.806Z,25.04
2023-05-25T13:13:00.868Z,25.05
2023-05-25T13:15:29.052Z,24.79
2023-05-25T13:18:00.420Z,25.17
2023-05-25T13:20:30.686Z,25.56
2023-05-25T13:22:58.636Z,25.39
2023-05-25T13:25:28.068Z,26.22
2023-05-25T13:27:58.236Z,26.43
2023-05-25T13:30:26.500Z,26.41
2023-05-25T13:32:54.028Z,26.75
2023-05-25T13:35:38.035Z,27.04
2023-05-25T13:38:05.784Z,27.41
2023-05-25T13:40:32.976Z,27.72
2023-05-25T13:42:59.999Z,27.50
2023-05-25T13:45:27.607Z,27.46
2023-05-25T13:47:55.029Z,27.66
2023-05-25T13:50:22.135Z,27.84
2023-05-25T13:52:49.321Z,27.63
2023-05-25T13:55:16.720Z,27.40
2023-05-25T13:57:43.881Z,27.10
2023-05-25T14:00:11.413Z,26.49
2023-05-25T14:02:38.707Z,26.07
2023-05-25T14:05:06.257Z,25.80
2023-05-25T14:07:33.361Z,25.97
2023-05-25T14:10:00.726Z,25.84
2023-05-25T14:12:28.028Z,25.55
2023-05-25T14:14:55.875Z,25.44
2023-05-25T14:17:24.759Z,25.38
2023-05-25T14:19:52.142Z,25.46
2023-05-25T14:22:19.471Z,25.52
2023-05-25T14:24:46.571Z,25.01
2023-05-25T14:27:13.602Z,24.77
2023-05-25T14:29:40.932Z,24.27
2023-05-25T14:32:07.954Z,24.26
2023-05-25T14:34:35.183Z,24.14
2023-05-25T14:37:02.172Z,24.05
2023-05-25T14:39:29.892Z,23.71
2023-05-25T14:41:57.249Z,23.77
2023-05-25T14:44:24.461Z,23.59
2023-05-25T14:46:51.566Z,23.72
2023-05-25T14:49:18.652Z,23.77
2023-05-25T14:51:45.767Z,23.81
2023-05-25T14:54:13.854Z,23.98
2023-05-25T14:56:41.169Z,24.03
2023-05-25T14:59:08.367Z,24.04
2023-05-25T15:01:35.807Z,24.22
2023-05-25T15:04:03.339Z,24.11
2023-05-25T15:06:32.150Z,23.98
2023-05-25T15:08:59.624Z,23.92
2023-05-25T15:11:29.470Z,23.82
2023-05-25T15:13:58.762Z,23.77
2023-05-25T15:16:26.366Z,23.65
2023-05-25T15:18:53.460Z,23.64
2023-05-25T15:21:20.647Z,23.63
2023-05-25T15:23:47.678Z,23.61
2023-05-25T15:26:14.855Z,23.62
2023-05-25T15:28:41.993Z,23.60
2023-05-25T15:31:09.232Z,23.59
2023-05-25T15:33:53.862Z,23.57
2023-05-25T15:36:25.287Z,23.52
2023-05-25T15:38:52.392Z,23.55
2023-05-25T15:41:19.666Z,23.42
2023-05-25T15:43:52.769Z,23.50
2023-05-25T15:46:20.368Z,23.49
2023-05-25T15:48:47.528Z,23.45
2023-05-25T15:51:14.735Z,23.47
2023-05-25T15:53:43.690Z,23.49
2023-05-25T15:56:11.123Z,23.36
2023-05-25T15:58:38.394Z,23.31
2023-05-25T16:01:05.671Z,23.43
2023-05-25T16:03:33.220Z,23.37
2023-05-25T16:06:00.398Z,23.34
2023-05-25T16:08:27.675Z,23.18
2023-05-25T16:10:54.689Z,23.31
2023-05-25T16:13:22.033Z,23.22
2023-05-25T16:15:49.196Z,23.28
2023-05-25T16:18:16.784Z,23.25
2023-05-25T16:20:44.482Z,23.20
2023-05-25T16:23:11.970Z,23.20
2023-05-25T16:25:39.062Z,23.14
2023-05-25T16:28:06.250Z,23.11
2023-05-25T16:30:33.682Z,23.10
2023-05-25T16:33:01.128Z,23.00
2023-05-25T16:35:28.263Z,23.01
2023-05-25T16:37:56.239Z,22.97
2023-05-25T16:40:23.463Z,22.74
2023-05-25T16:42:50.623Z,22.67
2023-05-25T16:45:18.066Z,22.66
2023-05-25T16:47:45.205Z,22.67
2023-05-25T16:50:12.340Z,22.60
2023-05-25T16:52:39.450Z,22.29
2023-05-25T16:55:07.267Z,21.95
2023-05-25T16:57:34.543Z,22.02
2023-05-25T17:00:01.595Z,21.77
2023-05-25T17:02:28.831Z,21.80
2023-05-25T17:04:56.004Z,21.43
2023-05-25T17:07:23.130Z,21.36
2023-05-25T17:09:50.432Z,21.32
2023-05-25T17:12:17.618Z,21.41
2023-05-25T17:14:44.741Z,21.39
2023-05-25T17:17:11.934Z,21.30
2023-05-25T17:19:39.078Z,21.25
2023-05-25T17:22:06.292Z,21.18
2023-05-25T17:24:34.573Z,21.12
2023-05-25T17:27:02.050Z,21.21
2023-05-25T17:29:30.762Z,21.02
2023-05-25T17:31:57.934Z,21.00
2023-05-25T17:34:25.225Z,21.08
2023-05-25T17:36:52.356Z,21.02
2023-05-25T17:39:19.516Z,20.89
2023-05-25T17:41:47.412Z,20.91
2023-05-25T17:44:14.565Z,20.81
2023-05-25T17:46:43.015Z,20.86
2023-05-25T17:49:10.209Z,20.79
2023-05-25T17:51:37.938Z,20.73
2023-05-25T17:54:05.165Z,20.70
2023-05-25T17:56:32.485Z,20.74
2023-05-25T17:58:59.712Z,20.80
2023-05-25T18:01:27.139Z,20.70
2023-05-25T18:03:54.871Z,20.79
2023-05-25T18:06:22.183Z,20.77
2023-05-25T18:08:49.410Z,20.76
2023-05-25T18:11:16.550Z,20.77
2023-05-25T18:13:44.405Z,20.75
2023-05-25T18:16:11.740Z,20.69
2023-05-25T18:18:39.233Z,20.69
2023-05-25T18:21:06.596Z,20.67
2023-05-25T18:23:33.766Z,20.69
2023-05-25T18:26:00.832Z,20.66
2023-05-25T18:28:29.752Z,20.70
2023-05-25T18:30:58.264Z,20.78
2023-05-25T18:33:25.415Z,20.70
2023-05-25T18:35:52.681Z,20.60
2023-05-25T18:38:19.997Z,20.54
2023-05-25T18:40:47.360Z,20.50
2023-05-25T18:43:14.623Z,20.71
2023-05-25T18:45:44.087Z,20.43
2023-05-25T18:48:11.492Z,20.33
2023-05-25T18:50:39.951Z,20.35
2023-05-25T18:53:09.972Z,20.35
2023-05-25T18:55:37.987Z,20.28
2023-05-25T18:58:05.271Z,20.17
2023-05-25T19:00:32.506Z,20.14
2023-05-25T19:02:59.762Z,20.17
2023-05-25T19:05:27.201Z,20.12
2023-05-25T19:07:58.924Z,20.12
2023-05-25T19:10:27.993Z,20.13
2023-05-25T19:12:55.300Z,20.07
2023-05-25T19:15:22.928Z,20.08
2023-05-25T19:17:50.201Z,20.06
2023-05-25T19:20:17.367Z,20.02
2023-05-25T19:22:44.810Z,19.95
2023-05-25T19:25:12.088Z,19.98
2023-05-25T19:27:39.271Z,19.91
2023-05-25T19:30:07.159Z,19.94
2023-05-25T19:32:34.402Z,19.86
2023-05-25T19:35:01.582Z,19.79
2023-05-25T19:37:28.691Z,19.81
2023-05-25T19:39:55.766Z,19.93
2023-05-25T19:42:23.081Z,19.81
2023-05-25T19:44:50.529Z,19.75
2023-05-25T19:47:17.532Z,19.69
2023-05-25T19:49:44.780Z,19.69
2023-05-25T19:52:11.877Z,19.72
2023-05-25T19:54:39.059Z,19.71
2023-05-25T19:57:06.868Z,19.74
2023-05-25T19:59:34.769Z,19.63
2023-05-25T20:02:01.760Z,19.55
2023-05-25T20:04:29.094Z,19.46
2023-05-25T20:06:56.209Z,19.37
2023-05-25T20:09:30.726Z,19.41
2023-05-25T20:11:58.786Z,19.37
2023-05-25T20:14:26.546Z,19.39
2023-05-25T20:16:56.015Z,19.26
2023-05-25T20:19:23.468Z,19.25
2023-05-25T20:21:51.205Z,19.11
2023-05-25T20:24:18.398Z,19.10
2023-05-25T20:26:45.757Z,18.97
2023-05-25T20:29:13.288Z,18.94
2023-05-25T20:31:40.575Z,19.00
2023-05-25T20:34:07.875Z,18.94
2023-05-25T20:36:36.700Z,18.93
2023-05-25T20:39:03.804Z,18.88
2023-05-25T20:41:32.047Z,18.94
2023-05-25T20:43:59.210Z,19.01
2023-05-25T20:46:26.939Z,18.92
2023-05-25T20:48:54.276Z,18.87
2023-05-25T20:51:22.034Z,18.82
2023-05-25T20:53:49.229Z,18.74
2023-05-25T20:56:16.390Z,18.84
2023-05-25T20:58:43.985Z,18.78
2023-05-25T21:01:11.264Z,18.72
2023-05-25T21:03:40.027Z,18.72
2023-05-25T21:06:07.455Z,18.69
2023-05-25T21:08:35.557Z,18.68
2023-05-25T21:11:02.613Z,18.61
2023-05-25T21:13:30.733Z,18.53
2023-05-25T21:15:57.810Z,18.51
2023-05-25T21:18:24.856Z,18.44
2023-05-25T21:20:51.965Z,18.44
2023-05-25T21:23:19.417Z,18.44
2023-05-25T21:25:46.860Z,18.43
2023-05-25T21:28:15.189Z,18.46
2023-05-25T21:30:42.268Z,18.44
2023-05-25T21:33:09.369Z,18.43
2023-05-25T21:35:36.467Z,18.34
2023-05-25T21:38:04.164Z,18.30
2023-05-25T21:40:31.367Z,18.36
2023-05-25T21:42:58.636Z,18.51
2023-05-25T21:45:26.045Z,18.47
2023-05-25T21:47:56.152Z,18.19
2023-05-25T21:50:23.527Z,17.96
2023-05-25T21:52:50.552Z,17.89
2023-05-25T21:55:17.550Z,17.87
2023-05-25T21:57:44.514Z,17.87
2023-05-25T22:00:12.826Z,17.94
2023-05-25T22:02:41.190Z,17.82
2023-05-25T22:05:08.555Z,17.80
2023-05-25T22:07:35.892Z,17.75
2023-05-25T22:10:03.970Z,17.79
2023-05-25T22:12:31.594Z,17.89
2023-05-25T22:14:58.756Z,17.86
2023-05-25T22:17:25.989Z,17.77
2023-05-25T22:20:06.582Z,17.78
2023-05-25T22:22:35.108Z,17.67
2023-05-25T22:25:02.267Z,17.63
2023-05-25T22:27:29.741Z,17.67
2023-05-25T22:29:56.940Z,17.65
2023-05-25T22:32:24.280Z,17.61
2023-05-25T22:34:51.482Z,17.61
2023-05-25T22:37:19.146Z,17.62
2023-05-25T22:39:46.207Z,17.64
2023-05-25T22:42:13.263Z,17.55
2023-05-25T22:44:41.260Z,17.53
2023-05-25T22:47:08.349Z,17.50
2023-05-25T22:49:41.287Z,17.51
2023-05-25T22:52:12.064Z,17.52
2023-05-25T22:54:39.872Z,17.48
2023-05-25T22:57:09.327Z,17.46
2023-05-25T22:59:36.724Z,17.46
2023-05-25T23:02:04.081Z,17.49
2023-05-25T23:04:31.982Z,17.53
2023-05-25T23:06:59.028Z,17.42
2023-05-25T23:09:26.073Z,17.44
2023-05-25T23:11:53.677Z,17.43
2023-05-25T23:14:21.060Z,17.60
2023-05-25T23:16:51.062Z,17.33
2023-05-25T23:19:18.375Z,17.33
2023-05-25T23:21:46.105Z,17.26
2023-05-25T23:24:13.167Z,17.20
2023-05-25T23:26:40.513Z,17.12
2023-05-25T23:29:07.736Z,17.04
2023-05-25T23:31:35.007Z,17.05
2023-05-25T23:34:05.585Z,17.06
2023-05-25T23:36:33.921Z,16.99
2023-05-25T23:39:01.168Z,17.01
2023-05-25T23:41:28.338Z,17.06
2023-05-25T23:43:56.173Z,17.23
2023-05-25T23:46:25.225Z,17.16
2023-05-25T23:48:52.241Z,17.20
2023-05-25T23:51:19.832Z,17.17
2023-05-25T23:53:47.225Z,17.18
2023-05-25T23:56:14.412Z,17.14
2023-05-25T23:58:42.772Z,17.12
